sensor_id;sensor_type;location;lat;lon;timestamp;P1;durP1;ratioP1;P2;durP2;ratioP2
5553;SDS011;2800;49.528;8.666;2023-04-16T00:02:12;20.50;;;17.33;;
5553;SDS011;2800;49.528;8.666;2023-04-16T00:04:38;20.07;;;17.50;;
5553;SDS011;2800;49.528;8.666;2023-04-16T00:07:04;18.77;;;16.73;;
5553;SDS011;2800;49.528;8.666;2023-04-16T00:09:29;21.33;;;18.27;;
5553;SDS011;2800;49.528;8.666;2023-04-16T00:11:55;22.30;;;17.83;;
5553;SDS011;2800;49.528;8.666;2023-04-16T00:14:20;20.60;;;18.00;;
5553;SDS011;2800;49.528;8.666;2023-04-16T00:16:46;21.00;;;18.40;;
5553;SDS011;2800;49.528;8.666;2023-04-16T00:19:11;22.30;;;18.07;;
5553;SDS011;2800;49.528;8.666;2023-04-16T00:21:37;23.13;;;20.50;;
5553;SDS011;2800;49.528;8.666;2023-04-16T00:24:02;22.07;;;18.90;;
5553;SDS011;2800;49.528;8.666;2023-04-16T00:26:28;24.97;;;19.60;;
5553;SDS011;2800;49.528;8.666;2023-04-16T00:28:54;24.67;;;21.83;;
5553;SDS011;2800;49.528;8.666;2023-04-16T00:31:29;22.70;;;19.70;;
5553;SDS011;2800;49.528;8.666;2023-04-16T00:33:56;22.37;;;19.60;;
5553;SDS011;2800;49.528;8.666;2023-04-16T00:36:22;20.50;;;18.03;;
5553;SDS011;2800;49.528;8.666;2023-04-16T00:38:48;25.20;;;21.33;;
5553;SDS011;2800;49.528;8.666;2023-04-16T00:41:15;23.53;;;20.60;;
5553;SDS011;2800;49.528;8.666;2023-04-16T00:43:40;24.57;;;20.20;;
5553;SDS011;2800;49.528;8.666;2023-04-16T00:46:06;22.33;;;19.67;;
5553;SDS011;2800;49.528;8.666;2023-04-16T00:48:32;24.07;;;20.33;;
5553;SDS011;2800;49.528;8.666;2023-04-16T00:50:58;22.03;;;18.77;;
5553;SDS011;2800;49.528;8.666;2023-04-16T00:53:25;24.00;;;19.87;;
5553;SDS011;2800;49.528;8.666;2023-04-16T00:55:51;23.83;;;20.47;;
5553;SDS011;2800;49.528;8.666;2023-04-16T00:58:17;22.67;;;19.13;;
5553;SDS011;2800;49.528;8.666;2023-04-16T01:00:43;23.23;;;20.43;;
5553;SDS011;2800;49.528;8.666;2023-04-16T01:03:09;22.73;;;18.80;;
5553;SDS011;2800;49.528;8.666;2023-04-16T01:05:35;23.17;;;19.00;;
5553;SDS011;2800;49.528;8.666;2023-04-16T01:08:01;22.87;;;19.30;;
5553;SDS011;2800;49.528;8.666;2023-04-16T01:10:26;20.57;;;17.83;;
5553;SDS011;2800;49.528;8.666;2023-04-16T01:12:52;21.70;;;19.20;;
5553;SDS011;2800;49.528;8.666;2023-04-16T01:15:17;23.43;;;19.13;;
5553;SDS011;2800;49.528;8.666;2023-04-16T01:17:44;21.33;;;19.00;;
5553;SDS011;2800;49.528;8.666;2023-04-16T01:20:10;20.77;;;18.43;;
5553;SDS011;2800;49.528;8.666;2023-04-16T01:22:35;22.73;;;18.27;;
5553;SDS011;2800;49.528;8.666;2023-04-16T01:25:01;20.60;;;18.40;;
5553;SDS011;2800;49.528;8.666;2023-04-16T01:27:27;23.30;;;18.63;;
5553;SDS011;2800;49.528;8.666;2023-04-16T01:29:52;20.77;;;18.47;;
5553;SDS011;2800;49.528;8.666;2023-04-16T01:32:18;20.83;;;18.63;;
5553;SDS011;2800;49.528;8.666;2023-04-16T01:34:43;22.27;;;18.87;;
5553;SDS011;2800;49.528;8.666;2023-04-16T01:37:09;22.07;;;18.83;;
5553;SDS011;2800;49.528;8.666;2023-04-16T01:39:36;23.80;;;18.83;;
5553;SDS011;2800;49.528;8.666;2023-04-16T01:42:01;23.57;;;20.57;;
5553;SDS011;2800;49.528;8.666;2023-04-16T01:44:26;21.97;;;18.33;;
5553;SDS011;2800;49.528;8.666;2023-04-16T01:46:52;25.40;;;19.60;;
5553;SDS011;2800;49.528;8.666;2023-04-16T01:49:18;24.00;;;20.63;;
5553;SDS011;2800;49.528;8.666;2023-04-16T01:51:43;22.47;;;20.07;;
5553;SDS011;2800;49.528;8.666;2023-04-16T01:54:09;20.33;;;18.10;;
5553;SDS011;2800;49.528;8.666;2023-04-16T01:56:35;24.67;;;19.23;;
5553;SDS011;2800;49.528;8.666;2023-04-16T01:59:00;23.03;;;19.30;;
5553;SDS011;2800;49.528;8.666;2023-04-16T02:01:26;24.97;;;20.57;;
5553;SDS011;2800;49.528;8.666;2023-04-16T02:03:51;25.00;;;20.40;;
5553;SDS011;2800;49.528;8.666;2023-04-16T02:06:17;25.23;;;20.37;;
5553;SDS011;2800;49.528;8.666;2023-04-16T02:08:42;26.07;;;19.80;;
5553;SDS011;2800;49.528;8.666;2023-04-16T02:11:08;24.60;;;20.47;;
5553;SDS011;2800;49.528;8.666;2023-04-16T02:13:33;25.40;;;20.63;;
5553;SDS011;2800;49.528;8.666;2023-04-16T02:15:59;27.20;;;21.40;;
5553;SDS011;2800;49.528;8.666;2023-04-16T02:18:25;28.13;;;21.17;;
5553;SDS011;2800;49.528;8.666;2023-04-16T02:20:50;24.17;;;21.20;;
5553;SDS011;2800;49.528;8.666;2023-04-16T02:23:16;26.30;;;20.70;;
5553;SDS011;2800;49.528;8.666;2023-04-16T02:25:43;27.27;;;20.50;;
5553;SDS011;2800;49.528;8.666;2023-04-16T02:28:10;28.40;;;21.87;;
5553;SDS011;2800;49.528;8.666;2023-04-16T02:30:38;24.07;;;21.27;;
5553;SDS011;2800;49.528;8.666;2023-04-16T02:33:05;25.43;;;19.40;;
5553;SDS011;2800;49.528;8.666;2023-04-16T02:35:32;25.10;;;20.47;;
5553;SDS011;2800;49.528;8.666;2023-04-16T02:37:58;24.87;;;21.53;;
5553;SDS011;2800;49.528;8.666;2023-04-16T02:40:24;25.87;;;20.50;;
5553;SDS011;2800;49.528;8.666;2023-04-16T02:42:50;24.70;;;20.83;;
5553;SDS011;2800;49.528;8.666;2023-04-16T02:45:16;24.03;;;20.10;;
5553;SDS011;2800;49.528;8.666;2023-04-16T02:47:42;30.00;;;21.70;;
5553;SDS011;2800;49.528;8.666;2023-04-16T02:50:08;26.67;;;21.20;;
5553;SDS011;2800;49.528;8.666;2023-04-16T02:52:33;23.90;;;20.63;;
5553;SDS011;2800;49.528;8.666;2023-04-16T02:54:59;25.40;;;20.90;;
5553;SDS011;2800;49.528;8.666;2023-04-16T02:57:24;29.50;;;20.60;;
5553;SDS011;2800;49.528;8.666;2023-04-16T02:59:50;25.00;;;20.43;;
5553;SDS011;2800;49.528;8.666;2023-04-16T03:02:15;24.67;;;19.60;;
5553;SDS011;2800;49.528;8.666;2023-04-16T03:04:41;27.60;;;22.80;;
5553;SDS011;2800;49.528;8.666;2023-04-16T03:07:07;25.40;;;21.03;;
5553;SDS011;2800;49.528;8.666;2023-04-16T03:09:33;23.70;;;21.10;;
5553;SDS011;2800;49.528;8.666;2023-04-16T03:11:59;28.97;;;22.90;;
5553;SDS011;2800;49.528;8.666;2023-04-16T03:14:25;26.53;;;22.93;;
5553;SDS011;2800;49.528;8.666;2023-04-16T03:16:51;24.97;;;21.77;;
5553;SDS011;2800;49.528;8.666;2023-04-16T03:19:17;26.20;;;23.40;;
5553;SDS011;2800;49.528;8.666;2023-04-16T03:21:42;24.93;;;20.97;;
5553;SDS011;2800;49.528;8.666;2023-04-16T03:24:08;26.00;;;22.37;;
5553;SDS011;2800;49.528;8.666;2023-04-16T03:26:33;26.87;;;22.90;;
5553;SDS011;2800;49.528;8.666;2023-04-16T03:28:59;27.00;;;22.10;;
5553;SDS011;2800;49.528;8.666;2023-04-16T03:31:26;26.60;;;23.30;;
5553;SDS011;2800;49.528;8.666;2023-04-16T03:33:51;27.50;;;23.50;;
5553;SDS011;2800;49.528;8.666;2023-04-16T03:36:17;25.17;;;22.43;;
5553;SDS011;2800;49.528;8.666;2023-04-16T03:38:43;26.60;;;22.60;;
5553;SDS011;2800;49.528;8.666;2023-04-16T03:41:09;26.40;;;22.77;;
5553;SDS011;2800;49.528;8.666;2023-04-16T03:43:34;29.30;;;23.77;;
5553;SDS011;2800;49.528;8.666;2023-04-16T03:46:00;28.37;;;23.37;;
5553;SDS011;2800;49.528;8.666;2023-04-16T03:48:25;26.17;;;22.67;;
5553;SDS011;2800;49.528;8.666;2023-04-16T03:50:51;24.60;;;21.70;;
5553;SDS011;2800;49.528;8.666;2023-04-16T03:53:16;31.60;;;23.97;;
5553;SDS011;2800;49.528;8.666;2023-04-16T03:55:42;31.33;;;23.43;;
5553;SDS011;2800;49.528;8.666;2023-04-16T03:58:07;26.50;;;22.50;;
5553;SDS011;2800;49.528;8.666;2023-04-16T04:00:33;28.97;;;22.93;;
5553;SDS011;2800;49.528;8.666;2023-04-16T04:02:59;27.67;;;24.20;;
5553;SDS011;2800;49.528;8.666;2023-04-16T04:05:24;36.40;;;23.10;;
5553;SDS011;2800;49.528;8.666;2023-04-16T04:07:50;26.67;;;23.77;;
5553;SDS011;2800;49.528;8.666;2023-04-16T04:10:15;27.07;;;23.87;;
5553;SDS011;2800;49.528;8.666;2023-04-16T04:12:41;25.90;;;21.97;;
5553;SDS011;2800;49.528;8.666;2023-04-16T04:15:07;27.10;;;23.27;;
5553;SDS011;2800;49.528;8.666;2023-04-16T04:17:33;26.53;;;23.23;;
5553;SDS011;2800;49.528;8.666;2023-04-16T04:19:58;25.40;;;22.50;;
5553;SDS011;2800;49.528;8.666;2023-04-16T04:22:24;26.40;;;21.70;;
5553;SDS011;2800;49.528;8.666;2023-04-16T04:24:49;27.73;;;23.00;;
5553;SDS011;2800;49.528;8.666;2023-04-16T04:27:15;26.73;;;22.97;;
5553;SDS011;2800;49.528;8.666;2023-04-16T04:29:40;25.27;;;22.20;;
5553;SDS011;2800;49.528;8.666;2023-04-16T04:32:06;24.90;;;21.60;;
5553;SDS011;2800;49.528;8.666;2023-04-16T04:34:31;27.90;;;22.97;;
5553;SDS011;2800;49.528;8.666;2023-04-16T04:36:57;26.23;;;22.97;;
5553;SDS011;2800;49.528;8.666;2023-04-16T04:39:23;26.50;;;22.10;;
5553;SDS011;2800;49.528;8.666;2023-04-16T04:41:48;25.30;;;21.50;;
5553;SDS011;2800;49.528;8.666;2023-04-16T04:44:14;27.83;;;22.57;;
5553;SDS011;2800;49.528;8.666;2023-04-16T04:46:40;26.10;;;22.93;;
5553;SDS011;2800;49.528;8.666;2023-04-16T04:49:05;26.23;;;21.53;;
5553;SDS011;2800;49.528;8.666;2023-04-16T04:51:31;27.00;;;23.00;;
5553;SDS011;2800;49.528;8.666;2023-04-16T04:53:57;27.40;;;22.00;;
5553;SDS011;2800;49.528;8.666;2023-04-16T04:56:22;29.67;;;23.07;;
5553;SDS011;2800;49.528;8.666;2023-04-16T04:58:51;28.43;;;22.80;;
5553;SDS011;2800;49.528;8.666;2023-04-16T05:01:16;27.97;;;22.77;;
5553;SDS011;2800;49.528;8.666;2023-04-16T05:03:42;29.33;;;23.30;;
5553;SDS011;2800;49.528;8.666;2023-04-16T05:06:08;25.57;;;22.03;;
5553;SDS011;2800;49.528;8.666;2023-04-16T05:08:33;25.90;;;22.20;;
5553;SDS011;2800;49.528;8.666;2023-04-16T05:10:59;29.30;;;23.47;;
5553;SDS011;2800;49.528;8.666;2023-04-16T05:13:24;29.27;;;23.23;;
5553;SDS011;2800;49.528;8.666;2023-04-16T05:15:50;28.30;;;23.47;;
5553;SDS011;2800;49.528;8.666;2023-04-16T05:18:15;27.50;;;22.97;;
5553;SDS011;2800;49.528;8.666;2023-04-16T05:20:41;25.27;;;21.97;;
5553;SDS011;2800;49.528;8.666;2023-04-16T05:23:06;25.80;;;21.93;;
5553;SDS011;2800;49.528;8.666;2023-04-16T05:25:32;28.93;;;22.80;;
5553;SDS011;2800;49.528;8.666;2023-04-16T05:27:57;29.30;;;24.80;;
5553;SDS011;2800;49.528;8.666;2023-04-16T05:30:23;30.63;;;24.10;;
5553;SDS011;2800;49.528;8.666;2023-04-16T05:32:48;26.70;;;23.00;;
5553;SDS011;2800;49.528;8.666;2023-04-16T05:35:14;28.40;;;22.97;;
5553;SDS011;2800;49.528;8.666;2023-04-16T05:37:40;28.50;;;21.73;;
5553;SDS011;2800;49.528;8.666;2023-04-16T05:40:05;29.50;;;21.63;;
5553;SDS011;2800;49.528;8.666;2023-04-16T05:42:31;27.33;;;22.33;;
5553;SDS011;2800;49.528;8.666;2023-04-16T05:44:57;25.87;;;21.73;;
5553;SDS011;2800;49.528;8.666;2023-04-16T05:47:23;27.60;;;22.70;;
5553;SDS011;2800;49.528;8.666;2023-04-16T05:49:48;28.77;;;22.20;;
5553;SDS011;2800;49.528;8.666;2023-04-16T05:52:14;27.97;;;23.73;;
5553;SDS011;2800;49.528;8.666;2023-04-16T05:54:39;23.90;;;20.40;;
5553;SDS011;2800;49.528;8.666;2023-04-16T05:57:05;27.87;;;22.13;;
5553;SDS011;2800;49.528;8.666;2023-04-16T05:59:30;26.20;;;22.40;;
5553;SDS011;2800;49.528;8.666;2023-04-16T06:01:56;26.37;;;22.20;;
5553;SDS011;2800;49.528;8.666;2023-04-16T06:04:22;25.63;;;21.70;;
5553;SDS011;2800;49.528;8.666;2023-04-16T06:06:47;25.53;;;20.87;;
5553;SDS011;2800;49.528;8.666;2023-04-16T06:09:13;24.00;;;20.23;;
5553;SDS011;2800;49.528;8.666;2023-04-16T06:11:38;27.20;;;21.00;;
5553;SDS011;2800;49.528;8.666;2023-04-16T06:14:04;27.80;;;21.83;;
5553;SDS011;2800;49.528;8.666;2023-04-16T06:16:29;25.40;;;20.07;;
5553;SDS011;2800;49.528;8.666;2023-04-16T06:18:55;25.77;;;21.70;;
5553;SDS011;2800;49.528;8.666;2023-04-16T06:21:20;25.73;;;21.10;;
5553;SDS011;2800;49.528;8.666;2023-04-16T06:23:46;23.53;;;19.73;;
5553;SDS011;2800;49.528;8.666;2023-04-16T06:26:11;25.40;;;21.87;;
5553;SDS011;2800;49.528;8.666;2023-04-16T06:28:37;25.23;;;20.87;;
5553;SDS011;2800;49.528;8.666;2023-04-16T06:31:03;24.03;;;20.87;;
5553;SDS011;2800;49.528;8.666;2023-04-16T06:33:28;23.73;;;19.47;;
5553;SDS011;2800;49.528;8.666;2023-04-16T06:35:54;26.20;;;21.00;;
5553;SDS011;2800;49.528;8.666;2023-04-16T06:38:19;24.40;;;20.80;;
5553;SDS011;2800;49.528;8.666;2023-04-16T06:40:45;24.73;;;21.37;;
5553;SDS011;2800;49.528;8.666;2023-04-16T06:43:10;24.03;;;19.97;;
5553;SDS011;2800;49.528;8.666;2023-04-16T06:45:36;24.30;;;20.43;;
5553;SDS011;2800;49.528;8.666;2023-04-16T06:48:01;24.80;;;20.07;;
5553;SDS011;2800;49.528;8.666;2023-04-16T06:50:28;21.20;;;18.10;;
5553;SDS011;2800;49.528;8.666;2023-04-16T06:52:54;26.50;;;20.90;;
5553;SDS011;2800;49.528;8.666;2023-04-16T06:55:20;23.33;;;18.70;;
5553;SDS011;2800;49.528;8.666;2023-04-16T06:57:46;24.00;;;19.47;;
5553;SDS011;2800;49.528;8.666;2023-04-16T07:00:11;22.63;;;18.47;;
5553;SDS011;2800;49.528;8.666;2023-04-16T07:02:37;21.47;;;18.00;;
5553;SDS011;2800;49.528;8.666;2023-04-16T07:05:03;23.87;;;19.90;;
5553;SDS011;2800;49.528;8.666;2023-04-16T07:07:28;22.70;;;18.43;;
5553;SDS011;2800;49.528;8.666;2023-04-16T07:09:54;24.60;;;19.10;;
5553;SDS011;2800;49.528;8.666;2023-04-16T07:12:20;23.30;;;18.13;;
5553;SDS011;2800;49.528;8.666;2023-04-16T07:14:46;25.53;;;19.63;;
5553;SDS011;2800;49.528;8.666;2023-04-16T07:17:11;23.17;;;18.70;;
5553;SDS011;2800;49.528;8.666;2023-04-16T07:19:37;25.33;;;21.20;;
5553;SDS011;2800;49.528;8.666;2023-04-16T07:22:02;23.23;;;19.37;;
5553;SDS011;2800;49.528;8.666;2023-04-16T07:24:28;24.80;;;19.97;;
5553;SDS011;2800;49.528;8.666;2023-04-16T07:26:54;26.13;;;19.63;;
5553;SDS011;2800;49.528;8.666;2023-04-16T07:29:19;23.20;;;19.40;;
5553;SDS011;2800;49.528;8.666;2023-04-16T07:31:45;26.47;;;21.40;;
5553;SDS011;2800;49.528;8.666;2023-04-16T07:34:11;27.33;;;21.90;;
5553;SDS011;2800;49.528;8.666;2023-04-16T07:36:36;27.17;;;22.67;;
5553;SDS011;2800;49.528;8.666;2023-04-16T07:39:03;29.63;;;23.30;;
5553;SDS011;2800;49.528;8.666;2023-04-16T07:41:29;31.30;;;24.73;;
5553;SDS011;2800;49.528;8.666;2023-04-16T07:43:54;33.33;;;26.37;;
5553;SDS011;2800;49.528;8.666;2023-04-16T07:46:20;34.70;;;26.27;;
5553;SDS011;2800;49.528;8.666;2023-04-16T07:48:46;30.77;;;26.00;;
5553;SDS011;2800;49.528;8.666;2023-04-16T07:51:12;31.37;;;24.47;;
5553;SDS011;2800;49.528;8.666;2023-04-16T07:53:37;32.83;;;25.60;;
5553;SDS011;2800;49.528;8.666;2023-04-16T07:56:03;31.97;;;25.17;;
5553;SDS011;2800;49.528;8.666;2023-04-16T07:58:29;36.10;;;28.10;;
5553;SDS011;2800;49.528;8.666;2023-04-16T08:00:54;31.53;;;26.03;;
5553;SDS011;2800;49.528;8.666;2023-04-16T08:03:20;36.93;;;29.33;;
5553;SDS011;2800;49.528;8.666;2023-04-16T08:05:45;33.07;;;28.20;;
5553;SDS011;2800;49.528;8.666;2023-04-16T08:08:11;37.00;;;29.03;;
5553;SDS011;2800;49.528;8.666;2023-04-16T08:10:37;34.20;;;27.57;;
5553;SDS011;2800;49.528;8.666;2023-04-16T08:13:03;33.90;;;26.63;;
5553;SDS011;2800;49.528;8.666;2023-04-16T08:15:28;31.40;;;25.47;;
5553;SDS011;2800;49.528;8.666;2023-04-16T08:17:55;38.53;;;26.20;;
5553;SDS011;2800;49.528;8.666;2023-04-16T08:20:20;31.97;;;25.10;;
5553;SDS011;2800;49.528;8.666;2023-04-16T08:22:46;36.43;;;26.03;;
5553;SDS011;2800;49.528;8.666;2023-04-16T08:25:12;32.80;;;25.87;;
5553;SDS011;2800;49.528;8.666;2023-04-16T08:27:38;30.87;;;25.13;;
5553;SDS011;2800;49.528;8.666;2023-04-16T08:30:04;31.87;;;25.83;;
5553;SDS011;2800;49.528;8.666;2023-04-16T08:32:30;33.10;;;25.90;;
5553;SDS011;2800;49.528;8.666;2023-04-16T08:34:56;32.67;;;27.47;;
5553;SDS011;2800;49.528;8.666;2023-04-16T08:37:21;34.00;;;27.13;;
5553;SDS011;2800;49.528;8.666;2023-04-16T08:39:47;32.63;;;25.33;;
5553;SDS011;2800;49.528;8.666;2023-04-16T08:42:16;34.93;;;26.50;;
5553;SDS011;2800;49.528;8.666;2023-04-16T08:44:47;33.77;;;25.00;;
5553;SDS011;2800;49.528;8.666;2023-04-16T08:47:16;37.00;;;25.90;;
5553;SDS011;2800;49.528;8.666;2023-04-16T08:49:46;33.67;;;24.83;;
5553;SDS011;2800;49.528;8.666;2023-04-16T08:52:17;34.27;;;24.67;;
5553;SDS011;2800;49.528;8.666;2023-04-16T08:54:48;31.17;;;24.60;;
5553;SDS011;2800;49.528;8.666;2023-04-16T08:57:22;32.70;;;25.83;;
5553;SDS011;2800;49.528;8.666;2023-04-16T08:59:53;33.17;;;25.13;;
5553;SDS011;2800;49.528;8.666;2023-04-16T09:02:20;33.40;;;25.47;;
5553;SDS011;2800;49.528;8.666;2023-04-16T09:04:46;33.70;;;24.80;;
5553;SDS011;2800;49.528;8.666;2023-04-16T09:07:13;36.43;;;27.40;;
5553;SDS011;2800;49.528;8.666;2023-04-16T09:09:40;35.77;;;27.27;;
5553;SDS011;2800;49.528;8.666;2023-04-16T09:12:07;35.90;;;27.20;;
5553;SDS011;2800;49.528;8.666;2023-04-16T09:14:34;39.23;;;24.87;;
5553;SDS011;2800;49.528;8.666;2023-04-16T09:17:00;28.00;;;23.73;;
5553;SDS011;2800;49.528;8.666;2023-04-16T09:19:27;30.13;;;23.77;;
5553;SDS011;2800;49.528;8.666;2023-04-16T09:21:52;30.77;;;23.87;;
5553;SDS011;2800;49.528;8.666;2023-04-16T09:24:18;36.53;;;26.23;;
5553;SDS011;2800;49.528;8.666;2023-04-16T09:26:44;31.97;;;25.30;;
5553;SDS011;2800;49.528;8.666;2023-04-16T09:29:10;33.43;;;26.03;;
5553;SDS011;2800;49.528;8.666;2023-04-16T09:31:36;30.73;;;24.30;;
5553;SDS011;2800;49.528;8.666;2023-04-16T09:34:02;33.73;;;26.13;;
5553;SDS011;2800;49.528;8.666;2023-04-16T09:36:28;36.67;;;28.13;;
5553;SDS011;2800;49.528;8.666;2023-04-16T09:38:54;33.13;;;25.13;;
5553;SDS011;2800;49.528;8.666;2023-04-16T09:41:27;30.70;;;24.40;;
5553;SDS011;2800;49.528;8.666;2023-04-16T09:46:21;33.97;;;24.60;;
5553;SDS011;2800;49.528;8.666;2023-04-16T09:48:47;33.77;;;25.33;;
5553;SDS011;2800;49.528;8.666;2023-04-16T09:51:13;31.40;;;24.57;;
5553;SDS011;2800;49.528;8.666;2023-04-16T09:53:38;29.07;;;23.17;;
5553;SDS011;2800;49.528;8.666;2023-04-16T09:56:04;28.37;;;22.40;;
5553;SDS011;2800;49.528;8.666;2023-04-16T09:58:31;32.87;;;24.20;;
5553;SDS011;2800;49.528;8.666;2023-04-16T10:03:33;31.13;;;23.30;;
5553;SDS011;2800;49.528;8.666;2023-04-16T10:06:03;29.53;;;22.20;;
5553;SDS011;2800;49.528;8.666;2023-04-16T10:08:32;33.43;;;24.97;;
5553;SDS011;2800;49.528;8.666;2023-04-16T10:10:57;28.90;;;22.93;;
5553;SDS011;2800;49.528;8.666;2023-04-16T10:13:23;30.17;;;23.60;;
5553;SDS011;2800;49.528;8.666;2023-04-16T10:15:52;34.87;;;27.77;;
5553;SDS011;2800;49.528;8.666;2023-04-16T10:18:20;30.20;;;23.83;;
5553;SDS011;2800;49.528;8.666;2023-04-16T10:20:46;31.10;;;25.00;;
5553;SDS011;2800;49.528;8.666;2023-04-16T10:23:13;33.80;;;26.20;;
5553;SDS011;2800;49.528;8.666;2023-04-16T10:25:39;33.47;;;25.57;;
5553;SDS011;2800;49.528;8.666;2023-04-16T10:28:06;33.00;;;23.57;;
5553;SDS011;2800;49.528;8.666;2023-04-16T10:30:33;34.77;;;25.13;;
5553;SDS011;2800;49.528;8.666;2023-04-16T10:33:00;34.20;;;24.03;;
5553;SDS011;2800;49.528;8.666;2023-04-16T10:35:28;30.63;;;23.20;;
5553;SDS011;2800;49.528;8.666;2023-04-16T10:37:58;33.00;;;24.43;;
5553;SDS011;2800;49.528;8.666;2023-04-16T10:40:49;33.43;;;24.43;;
5553;SDS011;2800;49.528;8.666;2023-04-16T10:43:18;34.53;;;23.97;;
5553;SDS011;2800;49.528;8.666;2023-04-16T10:45:43;32.00;;;24.73;;
5553;SDS011;2800;49.528;8.666;2023-04-16T10:48:11;33.30;;;25.77;;
5553;SDS011;2800;49.528;8.666;2023-04-16T10:50:38;35.33;;;25.50;;
5553;SDS011;2800;49.528;8.666;2023-04-16T10:55:55;39.30;;;27.67;;
5553;SDS011;2800;49.528;8.666;2023-04-16T10:58:29;32.17;;;25.17;;
5553;SDS011;2800;49.528;8.666;2023-04-16T11:00:58;32.20;;;24.50;;
5553;SDS011;2800;49.528;8.666;2023-04-16T11:03:28;31.70;;;24.60;;
5553;SDS011;2800;49.528;8.666;2023-04-16T11:06:08;30.73;;;24.53;;
5553;SDS011;2800;49.528;8.666;2023-04-16T11:08:49;30.30;;;23.80;;
5553;SDS011;2800;49.528;8.666;2023-04-16T11:11:16;32.53;;;24.40;;
5553;SDS011;2800;49.528;8.666;2023-04-16T11:13:43;31.10;;;23.70;;
5553;SDS011;2800;49.528;8.666;2023-04-16T11:16:10;33.77;;;23.10;;
5553;SDS011;2800;49.528;8.666;2023-04-16T11:18:39;29.97;;;22.10;;
5553;SDS011;2800;49.528;8.666;2023-04-16T11:21:09;28.50;;;22.57;;
5553;SDS011;2800;49.528;8.666;2023-04-16T11:23:48;30.77;;;22.60;;
5553;SDS011;2800;49.528;8.666;2023-04-16T11:26:24;25.70;;;21.00;;
5553;SDS011;2800;49.528;8.666;2023-04-16T11:28:55;27.47;;;21.40;;
5553;SDS011;2800;49.528;8.666;2023-04-16T11:31:21;28.13;;;22.87;;
5553;SDS011;2800;49.528;8.666;2023-04-16T11:33:49;32.33;;;23.90;;
5553;SDS011;2800;49.528;8.666;2023-04-16T11:36:14;31.10;;;22.53;;
5553;SDS011;2800;49.528;8.666;2023-04-16T11:38:40;34.87;;;24.63;;
5553;SDS011;2800;49.528;8.666;2023-04-16T11:41:07;30.20;;;23.50;;
5553;SDS011;2800;49.528;8.666;2023-04-16T11:43:33;33.37;;;26.27;;
5553;SDS011;2800;49.528;8.666;2023-04-16T11:46:02;36.00;;;26.20;;
5553;SDS011;2800;49.528;8.666;2023-04-16T11:48:47;33.77;;;25.90;;
5553;SDS011;2800;49.528;8.666;2023-04-16T11:51:14;32.67;;;26.10;;
5553;SDS011;2800;49.528;8.666;2023-04-16T11:53:44;29.87;;;24.40;;
5553;SDS011;2800;49.528;8.666;2023-04-16T11:56:11;28.10;;;23.33;;
5553;SDS011;2800;49.528;8.666;2023-04-16T11:58:36;27.23;;;23.37;;
5553;SDS011;2800;49.528;8.666;2023-04-16T12:01:02;30.70;;;24.47;;
5553;SDS011;2800;49.528;8.666;2023-04-16T12:03:37;32.10;;;24.37;;
5553;SDS011;2800;49.528;8.666;2023-04-16T12:06:07;30.43;;;24.33;;
5553;SDS011;2800;49.528;8.666;2023-04-16T12:08:33;30.70;;;24.43;;
5553;SDS011;2800;49.528;8.666;2023-04-16T12:10:59;30.50;;;24.87;;
5553;SDS011;2800;49.528;8.666;2023-04-16T12:13:24;30.13;;;24.30;;
5553;SDS011;2800;49.528;8.666;2023-04-16T12:15:51;31.50;;;24.77;;
5553;SDS011;2800;49.528;8.666;2023-04-16T12:18:18;31.93;;;24.70;;
5553;SDS011;2800;49.528;8.666;2023-04-16T12:20:46;31.30;;;25.80;;
5553;SDS011;2800;49.528;8.666;2023-04-16T12:23:28;32.50;;;26.10;;
5553;SDS011;2800;49.528;8.666;2023-04-16T12:25:57;33.00;;;25.73;;
5553;SDS011;2800;49.528;8.666;2023-04-16T12:28:34;32.37;;;25.80;;
5553;SDS011;2800;49.528;8.666;2023-04-16T12:31:02;31.90;;;26.37;;
5553;SDS011;2800;49.528;8.666;2023-04-16T12:33:28;30.50;;;25.87;;
5553;SDS011;2800;49.528;8.666;2023-04-16T12:35:54;32.03;;;26.67;;
5553;SDS011;2800;49.528;8.666;2023-04-16T12:38:19;34.67;;;26.40;;
5553;SDS011;2800;49.528;8.666;2023-04-16T12:40:45;33.73;;;26.60;;
5553;SDS011;2800;49.528;8.666;2023-04-16T12:43:11;33.03;;;26.27;;
5553;SDS011;2800;49.528;8.666;2023-04-16T12:45:37;30.17;;;25.40;;
5553;SDS011;2800;49.528;8.666;2023-04-16T12:48:04;31.47;;;26.10;;
5553;SDS011;2800;49.528;8.666;2023-04-16T12:50:30;30.40;;;25.63;;
5553;SDS011;2800;49.528;8.666;2023-04-16T12:52:56;32.43;;;25.83;;
5553;SDS011;2800;49.528;8.666;2023-04-16T12:55:22;31.73;;;27.00;;
5553;SDS011;2800;49.528;8.666;2023-04-16T12:57:48;34.53;;;25.63;;
5553;SDS011;2800;49.528;8.666;2023-04-16T13:00:16;33.70;;;25.90;;
5553;SDS011;2800;49.528;8.666;2023-04-16T13:02:42;34.63;;;26.30;;
5553;SDS011;2800;49.528;8.666;2023-04-16T13:05:07;32.60;;;28.07;;
5553;SDS011;2800;49.528;8.666;2023-04-16T13:07:33;38.60;;;29.37;;
5553;SDS011;2800;49.528;8.666;2023-04-16T13:09:59;37.20;;;28.30;;
5553;SDS011;2800;49.528;8.666;2023-04-16T13:12:25;40.97;;;29.90;;
5553;SDS011;2800;49.528;8.666;2023-04-16T13:14:51;37.80;;;30.63;;
5553;SDS011;2800;49.528;8.666;2023-04-16T13:17:17;34.33;;;26.63;;
5553;SDS011;2800;49.528;8.666;2023-04-16T13:19:42;34.90;;;29.27;;
5553;SDS011;2800;49.528;8.666;2023-04-16T13:22:09;36.97;;;27.00;;
5553;SDS011;2800;49.528;8.666;2023-04-16T13:24:34;34.93;;;29.17;;
5553;SDS011;2800;49.528;8.666;2023-04-16T13:27:00;35.83;;;28.50;;
5553;SDS011;2800;49.528;8.666;2023-04-16T13:29:25;37.50;;;27.50;;
5553;SDS011;2800;49.528;8.666;2023-04-16T13:31:51;36.10;;;27.87;;
5553;SDS011;2800;49.528;8.666;2023-04-16T13:34:16;38.40;;;29.30;;
5553;SDS011;2800;49.528;8.666;2023-04-16T13:36:42;37.20;;;27.77;;
5553;SDS011;2800;49.528;8.666;2023-04-16T13:39:07;35.40;;;28.90;;
5553;SDS011;2800;49.528;8.666;2023-04-16T13:41:36;35.13;;;28.00;;
5553;SDS011;2800;49.528;8.666;2023-04-16T13:44:02;41.70;;;30.10;;
5553;SDS011;2800;49.528;8.666;2023-04-16T13:46:28;46.70;;;36.87;;
5553;SDS011;2800;49.528;8.666;2023-04-16T13:48:54;45.47;;;36.43;;
5553;SDS011;2800;49.528;8.666;2023-04-16T13:51:20;42.87;;;32.43;;
5553;SDS011;2800;49.528;8.666;2023-04-16T13:53:46;47.97;;;33.80;;
5553;SDS011;2800;49.528;8.666;2023-04-16T13:56:11;49.10;;;37.10;;
5553;SDS011;2800;49.528;8.666;2023-04-16T13:58:37;50.27;;;38.40;;
5553;SDS011;2800;49.528;8.666;2023-04-16T14:01:03;84.90;;;57.53;;
5553;SDS011;2800;49.528;8.666;2023-04-16T14:03:28;55.63;;;41.70;;
5553;SDS011;2800;49.528;8.666;2023-04-16T14:05:54;40.40;;;32.20;;
5553;SDS011;2800;49.528;8.666;2023-04-16T14:08:19;39.03;;;31.60;;
5553;SDS011;2800;49.528;8.666;2023-04-16T14:10:46;39.20;;;32.10;;
5553;SDS011;2800;49.528;8.666;2023-04-16T14:13:12;42.60;;;30.27;;
5553;SDS011;2800;49.528;8.666;2023-04-16T14:15:37;44.13;;;34.00;;
5553;SDS011;2800;49.528;8.666;2023-04-16T14:18:03;41.47;;;31.83;;
5553;SDS011;2800;49.528;8.666;2023-04-16T14:20:29;43.00;;;33.27;;
5553;SDS011;2800;49.528;8.666;2023-04-16T14:22:54;43.47;;;34.10;;
5553;SDS011;2800;49.528;8.666;2023-04-16T14:25:21;41.13;;;33.63;;
5553;SDS011;2800;49.528;8.666;2023-04-16T14:27:46;50.90;;;36.03;;
5553;SDS011;2800;49.528;8.666;2023-04-16T14:30:12;47.00;;;38.07;;
5553;SDS011;2800;49.528;8.666;2023-04-16T14:32:37;51.13;;;39.00;;
5553;SDS011;2800;49.528;8.666;2023-04-16T14:35:03;52.23;;;38.17;;
5553;SDS011;2800;49.528;8.666;2023-04-16T14:37:29;50.53;;;38.17;;
5553;SDS011;2800;49.528;8.666;2023-04-16T14:39:55;56.70;;;44.37;;
5553;SDS011;2800;49.528;8.666;2023-04-16T14:42:20;48.23;;;36.83;;
5553;SDS011;2800;49.528;8.666;2023-04-16T14:44:46;48.60;;;38.87;;
5553;SDS011;2800;49.528;8.666;2023-04-16T14:47:11;47.87;;;39.70;;
5553;SDS011;2800;49.528;8.666;2023-04-16T14:49:37;48.87;;;37.03;;
5553;SDS011;2800;49.528;8.666;2023-04-16T14:52:03;53.13;;;40.20;;